createdAt,value
2022-12-08T00:00:48.034Z,38.29
2022-12-08T00:03:15.112Z,38.33
2022-12-08T00:06:24.081Z,37.99
2022-12-08T00:09:09.464Z,38.39
2022-12-08T00:11:36.450Z,38.34
2022-12-08T00:14:03.427Z,38.41
2022-12-08T00:16:30.320Z,38.46
2022-12-08T00:18:57.532Z,38.23
2022-12-08T00:21:24.390Z,38.25
2022-12-08T00:23:51.261Z,38.25
2022-12-08T00:26:18.146Z,38.13
2022-12-08T00:28:45.021Z,38.23
2022-12-08T00:31:11.955Z,38.56
2022-12-08T00:33:38.975Z,38.45
2022-12-08T00:36:09.648Z,38.60
2022-12-08T00:38:36.997Z,38.85
2022-12-08T00:41:04.551Z,38.83
2022-12-08T00:43:31.420Z,38.62
2022-12-08T00:45:58.317Z,38.66
2022-12-08T00:48:25.347Z,38.74
2022-12-08T00:50:52.208Z,38.60
2022-12-08T00:53:19.208Z,38.73
2022-12-08T00:55:46.237Z,38.58
2022-12-08T00:58:13.129Z,38.80
2022-12-08T01:00:43.240Z,38.84
2022-12-08T01:03:11.172Z,38.84
2022-12-08T01:05:38.058Z,39.03
2022-12-08T01:08:08.832Z,38.94
2022-12-08T01:10:37.379Z,39.02
2022-12-08T01:13:04.353Z,39.24
2022-12-08T01:15:31.198Z,38.92
2022-12-08T01:17:58.086Z,39.11
2022-12-08T01:20:24.953Z,39.24
2022-12-08T01:22:51.915Z,39.07
2022-12-08T01:25:18.864Z,38.88
2022-12-08T01:27:45.751Z,38.83
2022-12-08T01:30:13.385Z,39.22
2022-12-08T01:32:40.389Z,39.10
2022-12-08T01:35:07.564Z,39.04
2022-12-08T01:37:34.462Z,38.89
2022-12-08T01:40:01.762Z,39.16
2022-12-08T01:42:30.039Z,38.87
2022-12-08T01:44:59.616Z,38.74
2022-12-08T01:47:30.522Z,38.96
2022-12-08T01:49:57.439Z,38.91
2022-12-08T01:52:31.532Z,39.11
2022-12-08T01:55:02.627Z,38.76
2022-12-08T01:57:33.398Z,39.30
2022-12-08T02:00:03.434Z,39.13
2022-12-08T02:02:39.999Z,38.99
2022-12-08T02:05:07.187Z,39.30
2022-12-08T02:07:34.079Z,38.98
2022-12-08T02:10:01.505Z,39.11
2022-12-08T02:12:28.777Z,39.38
2022-12-08T02:14:57.531Z,39.14
2022-12-08T02:17:26.173Z,39.27
2022-12-08T02:20:13.431Z,39.52
2022-12-08T02:23:15.426Z,39.25
2022-12-08T02:25:42.198Z,39.39
2022-12-08T02:28:38.017Z,39.75
2022-12-08T02:31:20.254Z,39.49
2022-12-08T02:34:02.528Z,39.87
2022-12-08T02:36:41.439Z,39.75
2022-12-08T02:39:33.049Z,39.67
2022-12-08T02:42:02.698Z,39.68
2022-12-08T02:44:48.279Z,39.72
2022-12-08T02:47:17.279Z,39.85
2022-12-08T02:49:44.220Z,39.85
2022-12-08T02:52:13.946Z,39.99
2022-12-08T02:54:42.419Z,40.00
2022-12-08T02:57:15.593Z,39.97
2022-12-08T03:00:18.650Z,39.91
2022-12-08T03:03:07.051Z,39.84
2022-12-08T03:05:45.928Z,39.72
2022-12-08T03:08:34.848Z,39.89
2022-12-08T03:11:15.253Z,39.57
2022-12-08T03:13:45.277Z,39.13
2022-12-08T03:16:15.333Z,38.78
2022-12-08T03:18:45.461Z,38.33
2022-12-08T03:21:13.487Z,38.22
2022-12-08T03:23:40.308Z,37.84
2022-12-08T03:26:36.245Z,37.39
2022-12-08T03:29:03.109Z,36.92
2022-12-08T03:31:31.700Z,36.75
2022-12-08T03:33:59.021Z,36.56
2022-12-08T03:36:26.083Z,36.21
2022-12-08T03:38:53.531Z,35.73
2022-12-08T03:41:21.589Z,35.78
2022-12-08T03:43:52.602Z,35.31
2022-12-08T03:48:47.203Z,34.48
2022-12-08T03:51:14.150Z,34.59
2022-12-08T03:53:41.024Z,34.06
2022-12-08T03:56:29.347Z,33.94
2022-12-08T03:58:56.342Z,33.60
2022-12-08T04:01:23.421Z,33.58
2022-12-08T04:03:50.426Z,33.15
2022-12-08T04:06:17.537Z,32.92
2022-12-08T04:08:44.424Z,32.76
2022-12-08T04:11:11.406Z,32.23
2022-12-08T04:13:39.178Z,32.22
2022-12-08T04:16:06.463Z,31.68
2022-12-08T04:18:33.982Z,31.76
2022-12-08T04:21:00.972Z,31.44
2022-12-08T04:23:27.803Z,31.20
2022-12-08T04:25:54.740Z,31.10
2022-12-08T04:28:21.894Z,30.84
2022-12-08T04:30:49.374Z,30.68
2022-12-08T04:33:16.591Z,30.46
2022-12-08T04:35:43.454Z,30.24
2022-12-08T04:38:10.478Z,30.06
2022-12-08T04:40:37.442Z,29.58
2022-12-08T04:43:04.509Z,29.98
2022-12-08T04:45:31.709Z,30.29
2022-12-08T04:48:00.840Z,30.10
2022-12-08T04:50:28.073Z,30.51
2022-12-08T04:52:55.250Z,30.73
2022-12-08T04:55:22.240Z,31.02
2022-12-08T04:57:49.098Z,31.14
2022-12-08T05:00:16.472Z,30.96
2022-12-08T05:02:43.509Z,31.06
2022-12-08T05:05:10.736Z,30.61
2022-12-08T05:07:37.920Z,30.44
2022-12-08T05:10:05.875Z,30.16
2022-12-08T05:12:33.245Z,30.01
2022-12-08T05:15:00.123Z,29.83
2022-12-08T05:17:27.029Z,29.51
2022-12-08T05:19:53.916Z,29.46
2022-12-08T05:22:20.805Z,29.18
2022-12-08T05:24:48.073Z,28.99
2022-12-08T05:27:15.314Z,28.85
2022-12-08T05:29:42.443Z,28.67
2022-12-08T05:32:09.558Z,28.36
2022-12-08T05:34:36.521Z,28.26
2022-12-08T05:37:03.639Z,28.21
2022-12-08T05:39:31.291Z,27.92
2022-12-08T05:41:59.736Z,27.76
2022-12-08T05:44:26.849Z,27.50
2022-12-08T05:46:53.854Z,27.42
2022-12-08T05:49:20.874Z,27.28
2022-12-08T05:51:47.793Z,27.17
2022-12-08T05:54:14.750Z,27.16
2022-12-08T05:56:41.689Z,26.72
2022-12-08T05:59:08.597Z,26.58
2022-12-08T06:01:35.794Z,26.53
2022-12-08T06:04:03.580Z,26.58
2022-12-08T06:06:30.734Z,26.69
2022-12-08T06:08:57.676Z,26.39
2022-12-08T06:11:28.998Z,26.30
2022-12-08T06:13:56.864Z,26.21
2022-12-08T06:16:27.021Z,25.87
2022-12-08T06:18:54.261Z,25.95
2022-12-08T06:21:21.162Z,25.80
2022-12-08T06:23:49.795Z,25.84
2022-12-08T06:26:17.206Z,25.44
2022-12-08T06:28:44.324Z,25.50
2022-12-08T06:31:19.017Z,25.31
2022-12-08T06:33:46.416Z,25.13
2022-12-08T06:36:14.330Z,25.11
2022-12-08T06:38:43.667Z,25.15
2022-12-08T06:41:10.907Z,25.18
2022-12-08T06:43:38.030Z,25.08
2022-12-08T06:46:09.550Z,25.01
2022-12-08T06:48:36.660Z,24.64
2022-12-08T06:51:15.236Z,24.77
2022-12-08T06:53:42.796Z,24.34
2022-12-08T06:56:09.843Z,24.29
2022-12-08T06:58:37.038Z,24.15
2022-12-08T07:01:11.185Z,24.09
2022-12-08T07:03:38.521Z,24.51
2022-12-08T07:06:05.983Z,24.08
2022-12-08T07:08:33.650Z,24.11
2022-12-08T07:11:00.704Z,23.76
2022-12-08T07:13:27.623Z,23.84
2022-12-08T07:15:54.583Z,23.80
2022-12-08T07:18:21.663Z,23.84
2022-12-08T07:20:48.683Z,23.64
2022-12-08T07:23:15.696Z,23.28
2022-12-08T07:25:42.748Z,23.63
2022-12-08T07:28:11.036Z,23.46
2022-12-08T07:30:39.066Z,23.51
2022-12-08T07:33:06.816Z,23.34
2022-12-08T07:35:35.144Z,22.97
2022-12-08T07:38:02.698Z,22.97
2022-12-08T07:40:29.734Z,22.51
2022-12-08T07:42:56.709Z,20.79
2022-12-08T07:45:28.335Z,22.20
2022-12-08T07:47:58.279Z,22.46
2022-12-08T07:50:25.221Z,22.68
2022-12-08T07:52:52.172Z,22.53
2022-12-08T07:55:19.132Z,20.83
2022-12-08T07:57:46.026Z,21.92
2022-12-08T08:00:13.545Z,22.62
2022-12-08T08:02:41.344Z,22.56
2022-12-08T08:05:09.033Z,22.71
2022-12-08T08:07:37.257Z,22.32
2022-12-08T08:10:05.577Z,22.54
2022-12-08T08:12:33.286Z,22.58
2022-12-08T08:15:01.024Z,22.57
2022-12-08T08:17:28.843Z,22.66
2022-12-08T08:19:55.904Z,22.39
2022-12-08T08:22:22.842Z,22.43
2022-12-08T08:24:49.930Z,22.59
2022-12-08T08:27:16.852Z,22.63
2022-12-08T08:29:43.788Z,22.84
2022-12-08T08:32:10.838Z,22.71
2022-12-08T08:34:38.671Z,22.81
2022-12-08T08:37:05.677Z,21.95
2022-12-08T08:39:32.814Z,22.53
2022-12-08T08:41:59.993Z,22.59
2022-12-08T08:44:26.904Z,22.83
2022-12-08T08:46:54.059Z,23.01
2022-12-08T08:49:21.419Z,23.00
2022-12-08T08:51:48.385Z,22.86
2022-12-08T08:54:15.376Z,22.85
2022-12-08T08:56:42.311Z,22.87
2022-12-08T08:59:09.670Z,22.98
2022-12-08T09:01:36.727Z,23.04
2022-12-08T09:04:03.813Z,22.86
2022-12-08T09:06:31.003Z,23.00
2022-12-08T09:08:58.001Z,22.88
2022-12-08T09:11:24.914Z,22.94
2022-12-08T09:13:52.045Z,23.06
2022-12-08T09:16:19.278Z,23.29
2022-12-08T09:18:46.396Z,22.77
2022-12-08T09:21:16.600Z,21.27
2022-12-08T09:23:43.684Z,22.57
2022-12-08T09:26:10.678Z,22.64
2022-12-08T09:28:38.091Z,22.57
2022-12-08T09:31:05.223Z,22.90
2022-12-08T09:33:33.659Z,22.71
2022-12-08T09:36:04.056Z,22.91
2022-12-08T09:38:31.038Z,22.67
2022-12-08T09:40:58.008Z,22.96
2022-12-08T09:43:33.818Z,22.74
2022-12-08T09:46:02.163Z,22.80
2022-12-08T09:48:34.406Z,22.70
2022-12-08T09:51:01.344Z,22.71
2022-12-08T09:53:48.291Z,23.01
2022-12-08T09:56:23.090Z,23.07
2022-12-08T09:58:55.514Z,23.34
2022-12-08T10:01:23.404Z,23.15
2022-12-08T10:03:50.489Z,23.11
2022-12-08T10:06:53.151Z,23.13
2022-12-08T10:09:45.679Z,23.33
2022-12-08T10:12:34.355Z,23.23
2022-12-08T10:15:28.903Z,23.46
2022-12-08T10:17:56.059Z,22.66
2022-12-08T10:20:35.224Z,23.39
2022-12-08T10:23:27.346Z,23.94
2022-12-08T10:26:00.445Z,24.25
2022-12-08T10:28:27.356Z,23.98
2022-12-08T10:30:54.349Z,23.78
2022-12-08T10:33:21.963Z,23.84
2022-12-08T10:35:59.404Z,23.55
2022-12-08T10:38:36.578Z,23.95
2022-12-08T10:41:09.514Z,23.98
2022-12-08T10:43:48.203Z,23.99
2022-12-08T10:46:28.291Z,23.92
2022-12-08T10:49:04.398Z,23.67
2022-12-08T10:51:39.603Z,23.63
2022-12-08T10:54:28.940Z,23.91
2022-12-08T10:56:56.834Z,23.85
2022-12-08T10:59:25.722Z,24.00
2022-12-08T11:01:54.604Z,22.82
2022-12-08T11:04:22.253Z,23.75
2022-12-08T11:06:49.790Z,24.17
2022-12-08T11:09:16.652Z,24.04
2022-12-08T11:11:53.315Z,24.20
2022-12-08T11:14:22.986Z,23.99
2022-12-08T11:17:10.665Z,24.20
2022-12-08T11:19:38.669Z,24.27
2022-12-08T11:22:26.718Z,24.19
2022-12-08T11:25:00.315Z,24.27
2022-12-08T11:27:27.304Z,24.09
2022-12-08T11:29:54.288Z,24.07
2022-12-08T11:32:21.222Z,24.11
2022-12-08T11:34:56.212Z,24.43
2022-12-08T11:37:48.933Z,24.27
2022-12-08T11:40:42.918Z,24.33
2022-12-08T11:43:21.481Z,24.11
2022-12-08T11:45:54.784Z,24.28
2022-12-08T11:48:36.457Z,24.50
2022-12-08T11:51:13.490Z,23.55
2022-12-08T11:53:49.328Z,23.87
2022-12-08T11:56:25.115Z,23.89
2022-12-08T11:58:57.539Z,23.99
2022-12-08T12:01:26.580Z,23.69
2022-12-08T12:04:18.224Z,23.88
2022-12-08T12:06:57.122Z,23.83
2022-12-08T12:09:41.948Z,24.06
2022-12-08T12:12:36.293Z,23.80
2022-12-08T12:15:51.464Z,23.91
2022-12-08T12:18:48.653Z,23.86
2022-12-08T12:21:52.996Z,23.95
2022-12-08T12:24:28.289Z,23.83
2022-12-08T12:27:22.279Z,24.01
2022-12-08T12:29:55.988Z,24.12
2022-12-08T12:32:23.325Z,23.91
2022-12-08T12:34:52.409Z,24.26
2022-12-08T12:37:21.738Z,24.13
2022-12-08T12:40:22.148Z,24.17
2022-12-08T12:42:51.902Z,24.03
2022-12-08T12:45:21.787Z,23.93
2022-12-08T12:47:56.408Z,24.23
2022-12-08T12:50:33.203Z,24.36
2022-12-08T12:53:06.874Z,24.45
2022-12-08T12:55:55.154Z,24.61
2022-12-08T12:58:32.257Z,24.57
2022-12-08T13:01:11.884Z,24.60
2022-12-08T13:04:05.920Z,24.12
2022-12-08T13:06:47.865Z,23.46
2022-12-08T13:09:23.251Z,25.17
2022-12-08T13:11:52.415Z,25.47
2022-12-08T13:14:32.651Z,25.77
2022-12-08T13:17:00.689Z,25.65
2022-12-08T13:19:30.400Z,25.85
2022-12-08T13:21:57.404Z,25.44
2022-12-08T13:24:24.317Z,25.08
2022-12-08T13:26:51.637Z,25.17
2022-12-08T13:29:23.018Z,25.00
2022-12-08T13:32:22.260Z,25.05
2022-12-08T13:34:55.211Z,24.88
2022-12-08T13:37:31.697Z,24.70
2022-12-08T13:40:04.356Z,25.15
2022-12-08T13:42:44.169Z,25.28
2022-12-08T13:48:42.334Z,25.48
2022-12-08T13:53:15.849Z,25.35
2022-12-08T13:54:56.361Z,25.25
2022-12-08T13:57:11.072Z,25.54
2022-12-08T13:59:43.307Z,25.41
2022-12-08T14:02:19.284Z,25.50
2022-12-08T14:05:16.769Z,25.73
2022-12-08T14:07:34.463Z,25.60
2022-12-08T14:10:03.629Z,25.90
2022-12-08T14:12:30.603Z,25.85
2022-12-08T14:15:04.072Z,26.04
2022-12-08T14:17:31.816Z,26.07
2022-12-08T14:20:02.587Z,26.16
2022-12-08T14:22:34.010Z,26.32
2022-12-08T14:25:01.458Z,26.49
2022-12-08T14:27:30.175Z,26.55
2022-12-08T14:29:58.645Z,26.77
2022-12-08T14:32:44.492Z,26.70
2022-12-08T14:35:12.606Z,26.82
2022-12-08T14:37:42.120Z,27.14
2022-12-08T14:40:22.716Z,27.25
2022-12-08T14:42:54.204Z,27.10
2022-12-08T14:45:21.465Z,27.26
2022-12-08T14:47:48.732Z,27.53
2022-12-08T14:50:34.159Z,27.50
2022-12-08T14:53:01.278Z,27.71
2022-12-08T14:55:33.644Z,27.81
2022-12-08T14:58:00.716Z,27.85
2022-12-08T15:00:27.903Z,28.11
2022-12-08T15:02:55.890Z,28.18
2022-12-08T15:05:22.860Z,28.20
2022-12-08T15:07:54.063Z,28.04
2022-12-08T15:10:24.817Z,28.36
2022-12-08T15:13:10.093Z,28.30
2022-12-08T15:15:50.461Z,28.36
2022-12-08T15:18:29.606Z,28.50
2022-12-08T15:21:01.272Z,28.50
2022-12-08T15:23:30.785Z,28.73
2022-12-08T15:25:58.022Z,28.89
2022-12-08T15:28:29.963Z,29.21
2022-12-08T15:30:58.038Z,29.21
2022-12-08T15:33:25.103Z,29.23
2022-12-08T15:35:52.113Z,29.32
2022-12-08T15:38:26.418Z,29.38
2022-12-08T15:40:53.577Z,29.47
2022-12-08T15:43:20.596Z,29.71
2022-12-08T15:45:57.956Z,29.67
2022-12-08T15:48:27.538Z,29.65
2022-12-08T15:50:54.615Z,29.82
2022-12-08T15:53:21.522Z,29.82
2022-12-08T15:56:03.872Z,30.06
2022-12-08T16:01:23.225Z,30.21
2022-12-08T16:07:19.792Z,30.18
2022-12-08T16:09:50.886Z,30.26
2022-12-08T16:13:48.054Z,30.36
2022-12-08T16:15:51.731Z,30.65
2022-12-08T16:18:25.635Z,30.81
2022-12-08T16:21:16.949Z,30.93
2022-12-08T16:23:44.285Z,30.96
2022-12-08T16:27:22.103Z,31.17
2022-12-08T16:29:08.737Z,31.35
2022-12-08T16:31:35.722Z,31.21
2022-12-08T16:34:02.699Z,31.52
2022-12-08T16:36:29.671Z,31.45
2022-12-08T16:38:56.566Z,31.52
2022-12-08T16:41:42.236Z,31.48
2022-12-08T16:44:09.779Z,31.72
2022-12-08T16:46:37.084Z,31.73
2022-12-08T16:49:04.610Z,31.81
2022-12-08T16:51:31.503Z,31.89
2022-12-08T16:53:58.690Z,31.72
2022-12-08T16:56:32.263Z,31.60
2022-12-08T16:58:59.861Z,31.78
2022-12-08T17:01:26.809Z,31.92
2022-12-08T17:04:29.356Z,31.87
2022-12-08T17:06:40.666Z,32.22
2022-12-08T17:09:07.525Z,32.14
2022-12-08T17:11:40.801Z,32.25
2022-12-08T17:14:09.831Z,32.25
2022-12-08T17:16:36.785Z,32.40
2022-12-08T17:19:03.777Z,32.15
2022-12-08T17:21:30.684Z,32.22
2022-12-08T17:23:57.545Z,32.57
2022-12-08T17:26:24.405Z,32.37
2022-12-08T17:29:00.535Z,32.61
2022-12-08T17:31:30.404Z,32.52
2022-12-08T17:34:01.690Z,32.73
2022-12-08T17:36:28.653Z,32.87
2022-12-08T17:38:55.953Z,33.06
2022-12-08T17:41:22.848Z,32.86
2022-12-08T17:43:49.742Z,32.72
2022-12-08T17:46:18.211Z,32.71
2022-12-08T17:48:45.237Z,32.98
2022-12-08T17:51:12.108Z,33.15
2022-12-08T17:53:40.744Z,33.11
2022-12-08T17:56:14.433Z,33.30
2022-12-08T17:58:41.308Z,33.16
2022-12-08T18:01:09.802Z,33.36
2022-12-08T18:03:37.075Z,33.75
2022-12-08T18:06:07.872Z,33.97
2022-12-08T18:08:35.005Z,33.78
2022-12-08T18:11:02.445Z,34.03
2022-12-08T18:13:29.341Z,33.98
2022-12-08T18:15:56.199Z,33.91
2022-12-08T18:18:23.139Z,33.99
2022-12-08T18:20:50.218Z,33.97
2022-12-08T18:23:17.711Z,34.20
2022-12-08T18:25:44.898Z,34.29
2022-12-08T18:28:11.849Z,33.99
2022-12-08T18:30:39.730Z,34.45
2022-12-08T18:33:07.130Z,34.54
2022-12-08T18:35:34.009Z,34.20
2022-12-08T18:38:00.840Z,34.24
2022-12-08T18:40:28.370Z,34.24
2022-12-08T18:42:55.201Z,34.72
2022-12-08T18:45:22.872Z,34.45
2022-12-08T18:47:50.520Z,34.44
2022-12-08T18:50:17.573Z,34.54
2022-12-08T18:52:45.244Z,34.49
2022-12-08T18:55:12.141Z,34.77
2022-12-08T18:57:39.671Z,34.79
2022-12-08T19:00:07.661Z,34.70
2022-12-08T19:02:36.184Z,34.74
2022-12-08T19:05:03.161Z,34.96
2022-12-08T19:07:30.116Z,34.93
2022-12-08T19:09:56.996Z,35.03
2022-12-08T19:12:23.878Z,34.88
2022-12-08T19:14:50.828Z,35.15
2022-12-08T19:17:17.723Z,34.95
2022-12-08T19:19:44.549Z,35.24
2022-12-08T19:22:12.362Z,35.20
2022-12-08T19:24:39.377Z,34.96
2022-12-08T19:27:06.400Z,35.42
2022-12-08T19:29:33.310Z,35.32
2022-12-08T19:32:00.464Z,35.71
2022-12-08T19:34:27.473Z,35.55
2022-12-08T19:36:54.428Z,35.95
2022-12-08T19:39:40.734Z,35.80
2022-12-08T19:42:37.371Z,35.58
2022-12-08T19:45:11.949Z,36.09
2022-12-08T19:47:39.274Z,35.79
2022-12-08T19:50:25.552Z,36.07
2022-12-08T19:52:52.537Z,35.73
2022-12-08T19:55:19.563Z,35.83
2022-12-08T19:57:46.540Z,36.16
2022-12-08T20:00:13.730Z,36.07
2022-12-08T20:02:40.795Z,35.96
2022-12-08T20:05:08.304Z,35.99
2022-12-08T20:07:35.260Z,36.07
2022-12-08T20:10:07.503Z,36.27
2022-12-08T20:12:34.672Z,35.88
2022-12-08T20:15:01.629Z,36.01
2022-12-08T20:17:28.533Z,35.68
2022-12-08T20:19:55.505Z,35.98
2022-12-08T20:22:22.569Z,36.04
2022-12-08T20:25:09.630Z,35.94
2022-12-08T20:27:36.364Z,36.14
2022-12-08T20:30:04.211Z,36.30
2022-12-08T20:32:31.205Z,36.32
2022-12-08T20:34:58.284Z,36.29
2022-12-08T20:37:25.245Z,36.07
2022-12-08T20:39:52.753Z,36.03
2022-12-08T20:42:20.346Z,36.56
2022-12-08T20:44:47.337Z,36.23
2022-12-08T20:47:14.334Z,36.06
2022-12-08T20:49:41.482Z,36.33
2022-12-08T20:52:08.837Z,36.50
2022-12-08T20:54:36.017Z,36.43
2022-12-08T20:57:03.033Z,36.75
2022-12-08T20:59:30.441Z,36.31
2022-12-08T21:01:57.618Z,36.29
2022-12-08T21:04:25.243Z,36.41
2022-12-08T21:06:52.515Z,36.70
2022-12-08T21:09:19.625Z,36.71
2022-12-08T21:11:46.872Z,36.79
2022-12-08T21:14:13.834Z,36.97
2022-12-08T21:16:41.052Z,36.76
2022-12-08T21:19:08.470Z,37.03
2022-12-08T21:21:35.517Z,37.02
2022-12-08T21:24:03.468Z,36.75
2022-12-08T21:26:30.637Z,36.83
2022-12-08T21:28:58.921Z,36.80
2022-12-08T21:31:27.043Z,36.84
2022-12-08T21:33:55.313Z,36.87
2022-12-08T21:36:22.499Z,36.60
2022-12-08T21:38:49.456Z,36.58
2022-12-08T21:41:37.367Z,36.86
2022-12-08T21:44:05.394Z,36.97
2022-12-08T21:46:32.609Z,36.70
2022-12-08T21:48:59.800Z,36.81
2022-12-08T21:51:26.878Z,37.22
2022-12-08T21:53:53.818Z,36.83
2022-12-08T21:56:20.782Z,37.13
2022-12-08T21:58:47.683Z,36.94
2022-12-08T22:01:14.847Z,37.05
2022-12-08T22:03:41.934Z,36.82
2022-12-08T22:06:11.176Z,37.04
2022-12-08T22:08:38.465Z,37.03
2022-12-08T22:11:05.597Z,37.18
2022-12-08T22:13:35.992Z,37.49
2022-12-08T22:16:04.441Z,37.30
2022-12-08T22:18:31.782Z,37.21
2022-12-08T22:20:58.832Z,37.20
2022-12-08T22:23:25.738Z,37.41
2022-12-08T22:25:59.649Z,37.18
2022-12-08T22:28:26.823Z,37.47
2022-12-08T22:30:53.819Z,37.55
2022-12-08T22:33:20.727Z,37.65
2022-12-08T22:36:06.355Z,37.87
2022-12-08T22:38:36.932Z,37.84
2022-12-08T22:41:07.376Z,37.69
2022-12-08T22:43:34.655Z,37.67
2022-12-08T22:46:01.659Z,37.94
2022-12-08T22:48:28.626Z,37.81
2022-12-08T22:51:01.707Z,37.89
2022-12-08T22:53:28.666Z,38.05
2022-12-08T22:55:55.496Z,38.18
2022-12-08T22:58:22.500Z,38.22
2022-12-08T23:00:49.344Z,38.23
2022-12-08T23:03:16.432Z,38.10
2022-12-08T23:05:43.745Z,38.23
2022-12-08T23:08:13.385Z,38.03
2022-12-08T23:10:40.436Z,38.06
2022-12-08T23:13:07.447Z,38.10
2022-12-08T23:15:34.309Z,37.88
2022-12-08T23:18:01.331Z,38.19
2022-12-08T23:20:28.322Z,38.33
2022-12-08T23:22:55.261Z,38.15
2022-12-08T23:25:22.206Z,38.33
2022-12-08T23:27:49.212Z,38.28
2022-12-08T23:30:16.394Z,38.28
2022-12-08T23:32:43.436Z,38.19
2022-12-08T23:35:10.533Z,38.40
2022-12-08T23:37:37.879Z,37.98
2022-12-08T23:40:05.981Z,38.05
2022-12-08T23:42:33.314Z,38.37
2022-12-08T23:45:00.352Z,38.63
2022-12-08T23:47:27.533Z,38.66
2022-12-08T23:49:54.711Z,38.59
2022-12-08T23:52:21.644Z,38.29
2022-12-08T23:54:50.400Z,38.59
2022-12-08T23:57:17.383Z,38.54
2022-12-08T23:59:44.577Z,38.73
